Weather reports worldwide

Advertisment
Lus-La-Croix-Haute, France (7587): temperature & dewpoint: 20.09.2020 13:00:00 - 26.09.2020 13:00:00 (CEST)Lus-La-Croix-Haute, France (7587): wind speed & gusts: 20.09.2020 13:00:00 - 26.09.2020 13:00:00 (CEST)Lus-La-Croix-Haute, France (7587): wind direction: 20.09.2020 13:00:00 - 26.09.2020 13:00:00 (CEST)Lus-La-Croix-Haute, France (7587): precipitation: 20.09.2020 13:00:00 - 26.09.2020 13:00:00 (CEST)
Date & Time tt [°C] td [°C] ff [km/h] ff [kn] fx [km/h] fx [kn] dd rr [mm]
26.09.2020 13:00:00 5,0 1,5 20 11 60 32 NNW 0,0
26.09.2020 12:00:00 4,6 1,6 23 13 57 31 N 1,4
26.09.2020 11:00:00 4,5 -0,1 21 11 67 36 NNW 0,0
26.09.2020 10:00:00 3,6 -0,2 25 13 77 42 NNW 0,0
26.09.2020 09:00:00 3,0 0,2 28 15 73 40 N 0,0
26.09.2020 08:00:00 2,4 1,1 27 15 71 38 NNW 0,0
26.09.2020 07:00:00 1,7 0,8 19 10 52 28 NW 1,8
26.09.2020 06:00:00 2,2 0,9 20 11 50 27 NNW 1,0
26.09.2020 05:00:00 2,7 1,2 21 11 46 25 NNW 1,2
26.09.2020 04:00:00 2,1 1,5 15 8 58 32 NNW 1,2
26.09.2020 03:00:00 1,6 0,7 12 6 35 19 NW 1,8
26.09.2020 02:00:00 2,4 1,1 18 10 51 27 NNW 1,2
26.09.2020 01:00:00 2,7 1,5 23 12 66 36 NNW 2,0
26.09.2020 00:00:00 2,7 1,8 17 9 48 26 NW 2,2
25.09.2020 23:00:00 2,8 2,1 15 8 43 23 NW 1,2
25.09.2020 22:00:00 2,9 2,0 18 10 48 26 NW 1,8
25.09.2020 21:00:00 3,0 2,4 15 8 31 17 NW 1,2
25.09.2020 20:00:00 3,1 2,2 14 8 31 17 NW 3,0
25.09.2020 19:00:00 4,3 2,5 14 8 36 19 NNW 1,8
25.09.2020 18:00:00 5,1 3,6 5 3 23 12 NNW 0,6
25.09.2020 17:00:00 5,4 3,6 11 6 41 22 NNW 0,8
25.09.2020 16:00:00 5,6 3,6 11 6 49 27 N 1,6
25.09.2020 15:00:00 5,8 3,5 15 8 41 22 NW 0,4
25.09.2020 14:00:00 7,8 3,3 11 6 43 23 N 0,4
25.09.2020 13:00:00 6,8 4,5 11 6 33 18 NW 0,8
25.09.2020 12:00:00 7,4 2,7 14 8 41 22 NNW 0,0
25.09.2020 11:00:00 8,2 3,2 10 5 32 18 N 0,0
25.09.2020 10:00:00 6,4 5,3 10 6 30 16 NW 0,0
25.09.2020 09:00:00 5,3 4,4 16 8 33 18 WNW 0,0
25.09.2020 08:00:00 5,3 4,3 7 4 17 9 N 0,2
25.09.2020 07:00:00 5,8 4,3 3 2 37 20 N 0,8
25.09.2020 06:00:00 6,6 4,9 17 9 44 24 NW 1,6
25.09.2020 05:00:00 8,2 7,6 4 2 10 5 N 0,4
25.09.2020 04:00:00 8,2 7,6 4 2 9 5 ESE 0,0
25.09.2020 03:00:00 8,4 7,5 5 3 12 6 NNE 0,0
25.09.2020 02:00:00 9,0 8,1 4 2 20 11 SE 0,0
25.09.2020 01:00:00 10,1 7,9 7 4 24 13 NNE 0,0
25.09.2020 00:00:00 10,9 9,2 5 3 24 13 E 0,0
24.09.2020 23:00:00 11,4 10,6 8 4 23 12 SSE 2,2
24.09.2020 22:00:00 11,3 10,4 2 1 9 5 SW 0,2
24.09.2020 21:00:00 11,8 10,4 3 2 13 7 SE 0,0
24.09.2020 20:00:00 12,6 10,1 6 4 22 12 ESE 0,0
24.09.2020 19:00:00 - - - - - - - -
24.09.2020 18:00:00 15,4 12,9 5 3 17 9 S 0,0
24.09.2020 17:00:00 15,7 12,6 6 4 15 8 SSW 0,0
24.09.2020 16:00:00 15,5 12,6 9 5 20 11 S 0,0
24.09.2020 15:00:00 14,6 12,5 14 7 29 15 SSW 0,2
24.09.2020 14:00:00 15,8 12,0 10 6 25 14 SSW 0,0
24.09.2020 13:00:00 15,1 12,0 4 2 11 6 SE 0,0
24.09.2020 12:00:00 14,7 12,4 3 2 12 6 NNW 0,0
24.09.2020 11:00:00 13,4 12,0 2 1 9 5 ENE 0,0
24.09.2020 10:00:00 12,4 11,9 0 0 9 5 N 0,0
24.09.2020 09:00:00 11,6 11,1 3 2 8 5 SSW 0,0
24.09.2020 08:00:00 11,1 10,5 3 2 6 3 SSE 0,0
24.09.2020 07:00:00 11,2 10,6 3 2 5 3 E 0,0
24.09.2020 06:00:00 11,2 10,6 0 0 5 3 N 0,0
24.09.2020 05:00:00 11,4 10,8 2 1 5 3 NE 0,6
24.09.2020 04:00:00 11,4 10,8 2 1 6 3 WNW 0,0
24.09.2020 03:00:00 11,3 10,7 2 1 11 6 N 1,2
24.09.2020 02:00:00 11,0 10,4 3 2 8 4 WNW 0,0
24.09.2020 01:00:00 10,9 10,1 2 1 6 3 S 0,0
24.09.2020 00:00:00 10,9 10,1 3 2 6 3 N 0,0
23.09.2020 23:00:00 - - - - - - - -
23.09.2020 22:00:00 11,3 10,5 4 2 6 4 NNE 0,0
23.09.2020 21:00:00 11,2 9,9 0 0 6 3 N 0,0
23.09.2020 20:00:00 12,6 10,3 3 1 6 3 SSE 0,0
23.09.2020 19:00:00 15,8 11,2 2 1 10 6 W 0,0
23.09.2020 18:00:00 17,9 10,8 3 2 21 11 W 0,0
23.09.2020 17:00:00 19,4 11,2 8 4 21 12 WNW 0,0
23.09.2020 16:00:00 20,4 11,6 10 5 21 12 SE 0,0
23.09.2020 15:00:00 18,8 11,8 10 6 25 13 S 0,0
23.09.2020 14:00:00 19,7 11,2 11 6 26 14 S 0,0
23.09.2020 13:00:00 19,4 11,4 9 5 20 11 S 0,0
23.09.2020 12:00:00 18,1 11,9 5 3 13 7 SSE 0,0
23.09.2020 11:00:00 14,8 11,0 2 1 6 4 NNW 0,0
23.09.2020 10:00:00 12,5 11,2 3 2 10 5 W 0,0
23.09.2020 09:00:00 11,2 10,7 2 1 7 4 NW 0,0
23.09.2020 08:00:00 10,3 9,7 3 2 8 5 N 0,0
23.09.2020 07:00:00 10,7 10,1 0 0 6 3 N 0,0
23.09.2020 06:00:00 11,2 10,6 0 0 4 2 N 0,0
23.09.2020 05:00:00 11,2 10,4 0 0 3 2 N 0,0
23.09.2020 04:00:00 11,3 10,7 0 0 4 2 N 0,0
23.09.2020 03:00:00 11,5 10,9 0 0 5 3 N 0,0
23.09.2020 02:00:00 11,6 10,8 0 0 6 3 N 0,0
23.09.2020 01:00:00 11,6 10,8 3 2 5 3 S 0,0
23.09.2020 00:00:00 11,6 10,8 0 0 6 4 N 0,0
22.09.2020 23:00:00 11,6 10,7 2 1 8 4 SSE 0,0
22.09.2020 22:00:00 11,7 10,6 2 1 8 4 SSE 0,0
22.09.2020 21:00:00 11,9 10,8 2 1 7 4 WSW 0,0
22.09.2020 20:00:00 12,4 10,6 2 1 9 5 N 0,0
22.09.2020 19:00:00 - - - - - - - -
22.09.2020 18:00:00 13,0 11,2 7 4 19 10 SSW 0,0
22.09.2020 17:00:00 12,9 11,3 7 4 23 12 SSW 0,0
22.09.2020 16:00:00 13,1 12,0 5 3 26 14 SSW 1,4
22.09.2020 15:00:00 12,8 11,7 12 7 38 20 SSW 7,9
22.09.2020 14:00:00 14,6 12,8 3 2 9 5 NNE 0,6
22.09.2020 13:00:00 13,5 12,4 0 0 7 4 N 2,4
22.09.2020 12:00:00 13,2 12,4 3 2 7 4 SE 1,2
22.09.2020 11:00:00 12,1 11,5 0 0 4 2 N 1,0
22.09.2020 10:00:00 11,6 11,1 2 1 5 3 S 0,0
22.09.2020 09:00:00 11,0 10,5 0 0 5 3 N 0,0
22.09.2020 08:00:00 10,7 10,2 0 0 4 2 N 0,0
22.09.2020 07:00:00 10,5 10,0 0 0 5 3 N 0,0
22.09.2020 06:00:00 10,6 10,0 0 0 6 4 N 0,0
22.09.2020 05:00:00 10,7 10,1 0 0 4 2 N 0,0
22.09.2020 04:00:00 10,8 10,2 0 0 5 3 N 0,0
22.09.2020 03:00:00 10,9 10,3 0 0 4 2 N 0,0
22.09.2020 02:00:00 11,0 10,4 3 2 6 3 SSE 0,0
22.09.2020 01:00:00 11,1 10,2 2 1 7 4 NNE 0,0
22.09.2020 00:00:00 12,0 11,2 0 0 5 3 N 0,6
21.09.2020 23:00:00 12,2 11,3 2 1 11 6 ENE 4,6
21.09.2020 22:00:00 12,7 11,9 2 1 11 6 E 0,8
21.09.2020 21:00:00 12,7 11,9 3 2 7 4 S 0,0
21.09.2020 20:00:00 13,1 12,0 2 1 9 5 WSW 0,0
21.09.2020 19:00:00 13,9 12,3 4 2 8 5 ESE 0,6
21.09.2020 18:00:00 15,2 13,6 3 2 14 8 NNW 0,4
21.09.2020 17:00:00 16,2 12,0 5 3 12 6 SW 0,0
21.09.2020 16:00:00 18,3 12,7 8 4 18 10 NW 0,4
21.09.2020 15:00:00 19,1 11,4 5 3 18 10 N 0,0
21.09.2020 14:00:00 19,5 11,3 6 4 20 11 SW 0,0
21.09.2020 13:00:00 18,5 11,1 5 3 11 6 S 0,0
21.09.2020 12:00:00 17,4 11,9 4 2 7 4 SSE 0,0
21.09.2020 11:00:00 15,4 12,0 4 2 8 5 S 0,0
21.09.2020 10:00:00 12,8 12,3 0 0 5 3 N 0,0
21.09.2020 09:00:00 11,3 10,8 2 1 6 3 SSW 0,0
21.09.2020 08:00:00 10,6 10,1 0 0 4 2 N 0,2
21.09.2020 07:00:00 9,9 9,3 2 1 6 3 SW 0,0
21.09.2020 06:00:00 10,6 10,0 0 0 4 2 N 0,0
21.09.2020 05:00:00 11,1 10,5 2 1 6 4 NNE 0,0
21.09.2020 04:00:00 11,2 10,4 0 0 4 2 N 0,0
21.09.2020 03:00:00 11,7 11,1 0 0 5 3 N 0,0
21.09.2020 02:00:00 11,6 11,0 0 0 6 4 N 0,0
21.09.2020 01:00:00 11,4 10,6 0 0 6 4 N 0,0
21.09.2020 00:00:00 11,6 10,8 3 2 4 2 SE 0,0
20.09.2020 23:00:00 11,5 10,7 3 2 9 5 ESE 0,0
20.09.2020 22:00:00 12,1 11,0 2 1 6 4 E 0,0
20.09.2020 21:00:00 12,8 11,7 2 1 8 5 E 0,0
20.09.2020 20:00:00 13,6 12,0 2 1 15 8 S 0,0
20.09.2020 19:00:00 15,9 12,5 6 3 15 8 NW 0,0
20.09.2020 18:00:00 17,0 11,9 2 1 13 7 NNE 0,0
20.09.2020 17:00:00 17,4 12,1 5 3 14 8 SSW 4,1
20.09.2020 16:00:00 - - - - - - - -
20.09.2020 15:00:00 15,4 12,5 4 2 22 12 SW 0,0
20.09.2020 14:00:00 16,0 12,7 0 0 20 11 N 0,0
20.09.2020 13:00:00 15,1 12,4 13 7 27 15 SSW 0,0

tt = temperature
td = dewpoint
ff = wind speed
fx = gusts
dd = wind direction
rr = precipitation

Next stations